Terminal Aerodrome Forecast
Issued by NWS

Home | Current Version | Previous Version | Graphics & Text | Print | Product List | Glossary On
Versions: 1 2 3 4 5 6 7 8 9 10 11 12 13 14 15 16 17 18 19 20 21 22 23 24 25
043
FTUS43 KABR 221721
TAFATY
TAF
KATY 221721Z 2218/2318 12008KT P6SM FEW250
     FM230900 11007KT P6SM BKN080
     FM231700 17013KT P6SM BKN200=

USA.gov is the U.S. government's official web portal to all federal, state and local government web resources and services.